Time;durP1;ratioP1;P1;durP2;ratioP2;P2;SDS_P1;SDS_P2;PMS_P1;PMS_P2;Temp;Humidity;BMP_temperature;BMP_pressure;BME280_temperature;BME280_humidity;BME280_pressure;Samples;Min_cycle;Max_cycle;Signal;HPM_P1;HPM_P2
2022/11/23 00:01:26;;;;;;;3.80;1.40;;;9.40;85.10;;;;;;5019688;28;20435;-72
2022/11/23 00:03:54;;;;;;;3.60;1.80;;;9.40;85.40;;;;;;5024556;28;20526;-72
2022/11/23 00:06:22;;;;;;;3.15;1.70;;;9.40;84.90;;;;;;5021262;28;20434;-71
2022/11/23 00:08:49;;;;;;;3.00;1.50;;;9.40;86.40;;;;;;5019775;28;20418;-71
2022/11/23 00:11:17;;;;;;;3.00;1.70;;;9.40;85.70;;;;;;5017057;28;20431;-70
2022/11/23 00:13:44;;;;;;;5.28;1.20;;;9.40;86.60;;;;;;5016637;28;20790;-72
2022/11/23 00:16:14;;;;;;;3.87;1.30;;;9.30;85.90;;;;;;5018698;28;20816;-71
2022/11/23 00:18:41;;;;;;;3.17;1.30;;;9.30;85.80;;;;;;5019518;28;20773;-71
2022/11/23 00:21:08;;;;;;;3.17;1.37;;;9.40;86.00;;;;;;5020379;28;20527;-71
2022/11/23 00:23:36;;;;;;;2.63;1.60;;;9.30;86.20;;;;;;5015721;28;20470;-72
2022/11/23 00:26:03;;;;;;;2.72;1.15;;;9.30;86.80;;;;;;5019628;28;20461;-71
2022/11/23 00:28:30;;;;;;;3.30;1.30;;;9.40;85.90;;;;;;5014784;28;20459;-72
2022/11/23 00:30:57;;;;;;;2.85;1.40;;;9.40;87.10;;;;;;5011959;28;20442;-71
2022/11/23 00:33:25;;;;;;;3.25;1.33;;;9.40;86.40;;;;;;5012665;28;20910;-72
2022/11/23 00:36:00;;;;;;;2.20;1.10;;;9.40;87.50;;;;;;5019169;28;20441;-71
2022/11/23 00:38:27;;;;;;;2.80;1.17;;;9.40;86.70;;;;;;5015291;28;20539;-71
2022/11/23 00:40:58;;;;;;;3.10;1.20;;;9.40;86.60;;;;;;5017554;28;20434;-71
2022/11/23 00:43:25;;;;;;;2.90;1.17;;;9.30;87.00;;;;;;5015132;28;20427;-71
2022/11/23 00:46:03;;;;;;;2.30;1.00;;;9.30;87.30;;;;;;5019449;28;20805;-71
2022/11/23 00:48:31;;;;;;;2.03;1.20;;;9.30;86.80;;;;;;5016562;28;20465;-72
2022/11/23 00:50:59;;;;;;;3.00;1.20;;;9.40;86.70;;;;;;5019256;28;20435;-71
2022/11/23 00:53:26;;;;;;;3.92;1.20;;;9.40;86.40;;;;;;5017413;28;20532;-71
2022/11/23 00:55:53;;;;;;;2.73;1.03;;;9.40;86.70;;;;;;5013664;28;20588;-71
2022/11/23 00:58:20;;;;;;;2.03;1.20;;;9.40;86.50;;;;;;5021384;28;20426;-71
2022/11/23 01:00:47;;;;;;;4.05;1.30;;;9.30;86.80;;;;;;5016642;28;20449;-70
2022/11/23 01:03:14;;;;;;;3.13;1.30;;;9.30;86.80;;;;;;5005018;28;20433;-71
2022/11/23 01:05:42;;;;;;;3.40;1.20;;;9.40;86.80;;;;;;5019396;28;20462;-71
2022/11/23 01:08:09;;;;;;;2.25;1.10;;;9.40;86.40;;;;;;5021725;28;20441;-71
2022/11/23 01:10:36;;;;;;;2.35;1.13;;;9.40;86.30;;;;;;5020817;28;20469;-71
2022/11/23 01:13:03;;;;;;;2.22;1.10;;;9.40;86.20;;;;;;5020687;28;20427;-72
2022/11/23 01:15:29;;;;;;;2.30;1.13;;;9.40;86.10;;;;;;5015189;28;20563;-72
2022/11/23 01:17:56;;;;;;;2.10;1.10;;;9.40;85.90;;;;;;5015001;28;20416;-72
2022/11/23 01:20:23;;;;;;;1.95;1.23;;;9.50;85.70;;;;;;5021449;28;20431;-72
2022/11/23 01:22:52;;;;;;;2.53;1.10;;;9.50;85.90;;;;;;5020920;28;21072;-72
2022/11/23 01:25:19;;;;;;;2.00;1.10;;;9.50;85.80;;;;;;5014562;28;20584;-73
2022/11/23 01:27:46;;;;;;;2.25;1.15;;;9.40;86.00;;;;;;5015864;28;20440;-72
2022/11/23 01:30:13;;;;;;;3.05;1.23;;;9.50;86.40;;;;;;5018267;28;20436;-72
2022/11/23 01:32:40;;;;;;;3.33;1.20;;;9.40;86.90;;;;;;5018395;28;20471;-72
2022/11/23 01:35:07;;;;;;;2.67;1.10;;;9.40;87.10;;;;;;5018141;28;20462;-72
2022/11/23 01:37:34;;;;;;;1.92;1.00;;;9.40;87.10;;;;;;5017832;28;20430;-72
2022/11/23 01:40:02;;;;;;;2.75;1.30;;;9.40;87.40;;;;;;5017915;28;20453;-72
2022/11/23 01:42:49;;;;;;;3.90;1.10;;;9.40;87.30;;;;;;5016690;28;20507;-72
2022/11/23 01:45:36;;;;;;;2.83;1.20;;;9.40;86.90;;;;;;5019040;28;20439;-72
2022/11/23 01:48:08;;;;;;;2.83;1.23;;;9.40;86.60;;;;;;5022513;28;20418;-72
2022/11/23 01:50:35;;;;;;;2.35;1.00;;;9.40;87.10;;;;;;5025837;28;20757;-72
2022/11/23 01:53:02;;;;;;;4.07;1.30;;;9.40;87.00;;;;;;5024489;28;20514;-72
2022/11/23 01:55:31;;;;;;;3.15;1.25;;;9.40;87.30;;;;;;5024441;28;21023;-72
2022/11/23 01:57:58;;;;;;;3.20;1.38;;;9.50;86.50;;;;;;5022893;28;20797;-72
2022/11/23 02:00:24;;;;;;;2.05;1.23;;;9.50;86.50;;;;;;5017890;28;20425;-72
2022/11/23 02:02:59;;;;;;;2.00;1.00;;;9.50;86.20;;;;;;5024794;28;20525;-71
2022/11/23 02:05:30;;;;;;;2.13;0.90;;;9.50;86.50;;;;;;5024112;28;21210;-71
2022/11/23 02:08:00;;;;;;;3.00;1.10;;;9.50;86.30;;;;;;5023354;28;20816;-71
2022/11/23 02:10:28;;;;;;;4.20;1.10;;;9.50;86.20;;;;;;5025083;28;20463;-71
2022/11/23 02:12:56;;;;;;;2.20;1.10;;;9.50;86.40;;;;;;5021415;28;20476;-70
2022/11/23 02:15:22;;;;;;;2.25;1.20;;;9.50;85.90;;;;;;5023212;28;20937;-70
2022/11/23 02:17:49;;;;;;;4.38;1.50;;;9.50;85.50;;;;;;5025619;28;20435;-70
2022/11/23 02:20:18;;;;;;;3.55;1.20;;;9.50;85.50;;;;;;5024584;28;20960;-70
2022/11/23 02:22:52;;;;;;;3.10;1.40;;;9.50;85.20;;;;;;5023860;28;20426;-72
2022/11/23 02:25:28;;;;;;;4.68;1.15;;;9.60;85.20;;;;;;5014427;28;20909;-71
2022/11/23 02:27:57;;;;;;;2.58;1.15;;;9.50;85.20;;;;;;5017926;28;20441;-71
2022/11/23 02:30:25;;;;;;;2.63;1.30;;;9.50;85.10;;;;;;5020749;28;20420;-71
2022/11/23 02:32:52;;;;;;;3.50;1.50;;;9.60;85.20;;;;;;5024506;28;20442;-71
2022/11/23 02:35:19;;;;;;;3.20;1.47;;;9.60;85.20;;;;;;5023784;28;20893;-72
2022/11/23 02:37:46;;;;;;;4.20;1.33;;;9.60;84.90;;;;;;5025695;28;20441;-72
2022/11/23 02:40:23;;;;;;;3.85;1.80;;;9.50;85.50;;;;;;5024839;28;20437;-70
2022/11/23 02:42:50;;;;;;;3.50;1.38;;;9.50;85.90;;;;;;5022599;28;20427;-72
2022/11/23 02:45:26;;;;;;;3.92;1.67;;;9.60;85.30;;;;;;5018065;28;20439;-71
2022/11/23 02:47:53;;;;;;;3.30;1.40;;;9.50;85.70;;;;;;5030674;28;20442;-71
2022/11/23 02:50:20;;;;;;;2.92;1.30;;;9.50;85.70;;;;;;5021745;28;20437;-70
2022/11/23 02:52:47;;;;;;;2.28;1.02;;;9.50;86.20;;;;;;5026655;28;20443;-71
2022/11/23 02:55:14;;;;;;;3.85;1.40;;;9.50;86.00;;;;;;5024795;28;20442;-70
2022/11/23 02:57:41;;;;;;;5.95;2.28;;;9.50;86.50;;;;;;5026294;28;20545;-71
2022/11/23 03:00:09;;;;;;;6.68;2.08;;;9.50;86.50;;;;;;5022814;28;20455;-72
2022/11/23 03:02:37;;;;;;;4.75;1.85;;;9.50;86.30;;;;;;5020471;28;20457;-72
2022/11/23 03:05:05;;;;;;;3.83;1.50;;;9.50;86.00;;;;;;5017029;28;20435;-72
2022/11/23 03:07:31;;;;;;;3.00;1.42;;;9.50;86.00;;;;;;5018340;28;20612;-71
2022/11/23 03:09:59;;;;;;;3.05;1.10;;;9.40;86.30;;;;;;5022918;28;20431;-71
2022/11/23 03:12:26;;;;;;;3.63;1.33;;;9.40;86.50;;;;;;5021020;28;20434;-71
2022/11/23 03:14:52;;;;;;;3.92;1.30;;;9.50;85.90;;;;;;5021617;28;20562;-72
2022/11/23 03:17:19;;;;;;;3.05;1.40;;;9.50;85.80;;;;;;5019629;28;20453;-71
2022/11/23 03:19:47;;;;;;;2.88;1.10;;;9.50;85.80;;;;;;5017358;28;21071;-72
2022/11/23 03:22:14;;;;;;;5.47;1.65;;;9.50;86.00;;;;;;5024623;28;20419;-72
2022/11/23 03:24:41;;;;;;;4.30;1.30;;;9.50;86.10;;;;;;5019693;28;20430;-72
2022/11/23 03:27:08;;;;;;;2.90;1.20;;;9.50;86.20;;;;;;5024927;28;20444;-73
2022/11/23 03:29:35;;;;;;;3.65;1.40;;;9.50;85.80;;;;;;5021227;28;21060;-72
2022/11/23 03:32:01;;;;;;;3.13;1.23;;;9.50;85.90;;;;;;5022220;28;20457;-72
2022/11/23 03:34:28;;;;;;;3.43;1.30;;;9.50;86.10;;;;;;5017304;28;20497;-72
2022/11/23 03:36:56;;;;;;;4.03;1.52;;;9.50;85.90;;;;;;5018662;28;20454;-72
2022/11/23 03:39:23;;;;;;;4.22;1.40;;;9.50;86.00;;;;;;5017531;28;21118;-72
2022/11/23 03:41:50;;;;;;;3.58;1.65;;;9.50;86.50;;;;;;5025987;28;20430;-72
2022/11/23 03:44:16;;;;;;;3.35;1.40;;;9.40;86.50;;;;;;5013652;28;20431;-72
2022/11/23 03:46:43;;;;;;;3.60;1.50;;;9.40;86.60;;;;;;5020429;28;20434;-72
2022/11/23 03:49:10;;;;;;;4.00;1.50;;;9.40;86.40;;;;;;5021738;28;20771;-72
2022/11/23 03:51:37;;;;;;;3.75;1.55;;;9.40;86.40;;;;;;5017373;28;20929;-72
2022/11/23 03:54:05;;;;;;;3.88;1.33;;;9.40;86.20;;;;;;5016020;28;20431;-72
2022/11/23 03:56:32;;;;;;;2.65;1.52;;;9.40;86.60;;;;;;5023180;28;20451;-72
2022/11/23 03:58:59;;;;;;;4.93;1.40;;;9.40;86.90;;;;;;5022490;28;20538;-72
2022/11/23 04:01:25;;;;;;;3.30;1.42;;;9.40;86.50;;;;;;5020334;28;20881;-72
2022/11/23 04:03:52;;;;;;;4.03;1.58;;;9.40;86.60;;;;;;5016698;28;20552;-72
2022/11/23 04:06:19;;;;;;;3.85;1.67;;;9.40;86.40;;;;;;5022959;28;20533;-72
2022/11/23 04:08:46;;;;;;;3.70;1.70;;;9.40;86.70;;;;;;5024236;28;20534;-71
2022/11/23 04:11:14;;;;;;;2.72;1.50;;;9.40;85.80;;;;;;5020082;28;20432;-71
2022/11/23 04:13:40;;;;;;;4.68;1.50;;;9.40;85.80;;;;;;5022736;28;20445;-71
2022/11/23 04:16:07;;;;;;;4.18;1.33;;;9.40;85.50;;;;;;5019836;28;21240;-71
2022/11/23 04:18:34;;;;;;;3.88;1.40;;;9.40;85.80;;;;;;5040966;22;20437;-66
2022/11/23 04:21:01;;;;;;;3.72;1.70;;;9.40;85.60;;;;;;5040267;28;20433;-66
2022/11/23 04:23:28;;;;;;;3.75;1.60;;;9.40;85.30;;;;;;5044912;28;20429;-67
2022/11/23 04:25:55;;;;;;;4.60;1.60;;;9.40;85.70;;;;;;5044633;28;20433;-65
2022/11/23 04:28:23;;;;;;;5.15;1.70;;;9.40;85.60;;;;;;5045061;28;21010;-65
2022/11/23 04:30:49;;;;;;;2.92;1.58;;;9.40;86.00;;;;;;5040249;28;20887;-65
2022/11/23 04:33:16;;;;;;;4.28;1.67;;;9.40;85.50;;;;;;5039853;28;20970;-67
2022/11/23 04:35:43;;;;;;;4.50;1.70;;;9.40;85.80;;;;;;5044758;28;20429;-66
2022/11/23 04:38:09;;;;;;;3.93;1.60;;;9.40;85.40;;;;;;5038266;28;20879;-64
2022/11/23 04:40:37;;;;;;;4.05;1.50;;;9.40;85.80;;;;;;5036920;28;20435;-64
2022/11/23 04:43:03;;;;;;;3.08;1.38;;;9.40;85.80;;;;;;5034413;28;20431;-65
2022/11/23 04:45:31;;;;;;;3.93;1.73;;;9.50;85.30;;;;;;5038385;28;20941;-64
2022/11/23 04:47:58;;;;;;;4.40;1.50;;;9.40;85.80;;;;;;5035887;28;20931;-65
2022/11/23 04:50:25;;;;;;;3.05;1.40;;;9.40;86.50;;;;;;5035694;28;20430;-67
2022/11/23 04:52:52;;;;;;;3.63;1.60;;;9.40;86.20;;;;;;5042182;28;20421;-67
2022/11/23 04:55:18;;;;;;;2.20;1.30;;;9.40;85.70;;;;;;5040099;28;20934;-67
2022/11/23 04:57:45;;;;;;;3.80;1.40;;;9.40;85.50;;;;;;5039224;28;20419;-64
2022/11/23 05:00:13;;;;;;;4.03;1.70;;;9.40;85.40;;;;;;5036038;28;20460;-66
2022/11/23 05:02:41;;;;;;;2.42;1.30;;;9.40;85.70;;;;;;5035714;28;20432;-67
2022/11/23 05:05:09;;;;;;;3.35;1.33;;;9.40;86.10;;;;;;5039286;28;20444;-67
2022/11/23 05:07:36;;;;;;;3.65;1.50;;;9.40;85.30;;;;;;5046751;28;20416;-65
2022/11/23 05:10:04;;;;;;;4.20;1.70;;;9.40;85.50;;;;;;5041987;28;20512;-66
2022/11/23 05:12:30;;;;;;;3.33;1.30;;;9.40;85.80;;;;;;5046277;28;20423;-65
2022/11/23 05:14:57;;;;;;;4.00;1.50;;;9.30;86.50;;;;;;5038837;28;20440;-67
2022/11/23 05:17:24;;;;;;;3.35;1.50;;;9.30;87.10;;;;;;5037107;28;20435;-67
2022/11/23 05:19:52;;;;;;;4.43;1.30;;;9.30;87.10;;;;;;5040889;28;20421;-68
2022/11/23 05:22:19;;;;;;;3.75;1.60;;;9.30;87.50;;;;;;5039986;28;20803;-68
2022/11/23 05:24:45;;;;;;;3.28;1.33;;;9.20;86.90;;;;;;5034088;28;20974;-67
2022/11/23 05:27:13;;;;;;;3.22;1.20;;;9.30;87.50;;;;;;5031231;28;20443;-67
2022/11/23 05:29:39;;;;;;;3.42;1.35;;;9.20;88.40;;;;;;5033107;28;20440;-65
2022/11/23 05:32:06;;;;;;;4.70;1.60;;;9.20;88.40;;;;;;5039816;28;20464;-66
2022/11/23 05:34:33;;;;;;;3.87;1.50;;;9.20;88.90;;;;;;5038518;28;20430;-66
2022/11/23 05:37:01;;;;;;;4.88;1.80;;;9.20;88.60;;;;;;5035144;28;20423;-66
2022/11/23 05:39:28;;;;;;;7.20;2.42;;;9.20;89.30;;;;;;5038137;28;20455;-66
2022/11/23 05:41:54;;;;;;;4.30;1.60;;;9.10;89.50;;;;;;5034311;28;20805;-65
2022/11/23 05:44:21;;;;;;;3.50;1.45;;;9.10;89.70;;;;;;5039072;28;20437;-66
2022/11/23 05:46:48;;;;;;;3.67;1.43;;;9.20;89.10;;;;;;5037655;28;20467;-66
2022/11/23 05:49:15;;;;;;;3.75;1.40;;;9.20;88.50;;;;;;5046098;28;20432;-66
2022/11/23 05:51:41;;;;;;;2.83;1.40;;;9.30;88.10;;;;;;5037467;28;20440;-65
2022/11/23 05:54:09;;;;;;;4.20;1.50;;;9.30;87.70;;;;;;5054709;28;20450;-64
2022/11/23 05:56:36;;;;;;;5.18;1.60;;;9.30;87.60;;;;;;5055988;28;20950;-66
2022/11/23 05:59:04;;;;;;;3.90;1.60;;;9.20;87.50;;;;;;5032011;28;20485;-66
2022/11/23 06:01:31;;;;;;;3.07;1.40;;;9.20;87.50;;;;;;5030129;28;20536;-65
2022/11/23 06:03:58;;;;;;;3.72;1.58;;;9.20;87.40;;;;;;5044375;28;20425;-65
2022/11/23 06:06:25;;;;;;;5.30;1.45;;;9.20;87.80;;;;;;5045840;28;20509;-65
2022/11/23 06:08:52;;;;;;;4.20;1.30;;;9.20;87.10;;;;;;5062291;28;20790;-64
2022/11/23 06:11:20;;;;;;;3.35;1.50;;;9.30;86.80;;;;;;5042269;28;20442;-66
2022/11/23 06:13:47;;;;;;;3.78;1.30;;;9.30;87.20;;;;;;5041928;28;20436;-63
2022/11/23 06:16:14;;;;;;;2.90;1.85;;;9.20;87.40;;;;;;5047899;28;20513;-64
2022/11/23 06:18:40;;;;;;;4.00;1.20;;;9.20;87.20;;;;;;5040241;28;20418;-66
2022/11/23 06:21:07;;;;;;;4.50;1.30;;;9.20;86.30;;;;;;5040590;28;20458;-67
2022/11/23 06:23:34;;;;;;;2.60;1.23;;;9.30;86.40;;;;;;5034488;28;20422;-65
2022/11/23 06:26:02;;;;;;;3.80;1.45;;;9.20;86.20;;;;;;5039401;28;20448;-64
2022/11/23 06:28:30;;;;;;;4.57;1.38;;;9.20;86.00;;;;;;5033555;28;20808;-64
2022/11/23 06:31:01;;;;;;;4.07;1.40;;;9.20;86.10;;;;;;5029599;28;20786;-65
2022/11/23 06:33:28;;;;;;;4.80;1.50;;;9.20;85.50;;;;;;5034031;28;20434;-65
2022/11/23 06:35:57;;;;;;;5.30;1.92;;;9.30;85.30;;;;;;5047140;28;20484;-64
2022/11/23 06:38:24;;;;;;;4.75;1.90;;;9.30;84.80;;;;;;5039946;28;20456;-66
2022/11/23 06:40:51;;;;;;;4.97;1.55;;;9.20;84.20;;;;;;5046714;28;20432;-64
2022/11/23 06:43:17;;;;;;;5.50;1.95;;;9.20;84.30;;;;;;5031967;28;20441;-65
2022/11/23 06:45:45;;;;;;;4.50;1.92;;;9.20;84.10;;;;;;5043101;28;20428;-64
2022/11/23 06:48:12;;;;;;;5.10;1.90;;;9.20;84.30;;;;;;5040113;28;20444;-66
2022/11/23 06:50:39;;;;;;;4.67;1.50;;;9.20;84.40;;;;;;5047008;28;20963;-65
2022/11/23 06:53:06;;;;;;;3.70;1.80;;;9.20;84.40;;;;;;5057542;28;20805;-64
2022/11/23 06:55:33;;;;;;;4.22;1.88;;;9.20;83.90;;;;;;5049879;28;20429;-65
2022/11/23 06:57:59;;;;;;;4.63;1.73;;;9.20;84.10;;;;;;5041176;28;20430;-65
2022/11/23 07:00:26;;;;;;;7.85;2.00;;;9.20;83.80;;;;;;5036829;28;20433;-64
2022/11/23 07:02:55;;;;;;;4.40;1.70;;;9.20;83.50;;;;;;5048100;28;20443;-65
2022/11/23 07:05:23;;;;;;;4.43;1.85;;;9.20;83.50;;;;;;5050984;28;20427;-65
2022/11/23 07:07:50;;;;;;;6.30;2.40;;;9.20;83.80;;;;;;5043874;28;20433;-64
2022/11/23 07:10:17;;;;;;;4.10;1.52;;;9.20;83.70;;;;;;5043202;28;20528;-64
2022/11/23 07:12:44;;;;;;;6.75;2.03;;;9.20;82.90;;;;;;5048731;28;20448;-67
2022/11/23 07:15:11;;;;;;;6.40;2.30;;;9.20;83.80;;;;;;5047604;28;20427;-64
2022/11/23 07:17:42;;;;;;;6.43;2.00;;;9.20;83.60;;;;;;5042246;28;20441;-67
2022/11/23 07:20:12;;;;;;;6.60;2.20;;;9.10;83.90;;;;;;5041846;28;20432;-65
2022/11/23 07:22:39;;;;;;;5.82;2.10;;;9.00;84.10;;;;;;5055734;28;20416;-72
2022/11/23 07:25:07;;;;;;;4.50;2.00;;;9.00;84.60;;;;;;5052508;28;21151;-71
2022/11/23 07:27:33;;;;;;;5.78;2.00;;;9.00;84.70;;;;;;5059875;28;20415;-65
2022/11/23 07:30:00;;;;;;;6.90;2.50;;;9.10;83.70;;;;;;5047568;28;20920;-65
2022/11/23 07:32:27;;;;;;;7.50;2.42;;;9.10;83.00;;;;;;5053760;28;20418;-64
2022/11/23 07:34:54;;;;;;;8.57;3.03;;;9.10;82.80;;;;;;5060023;28;20455;-65
2022/11/23 07:37:22;;;;;;;5.63;2.70;;;9.10;82.60;;;;;;5053499;28;20459;-65
2022/11/23 07:39:48;;;;;;;6.03;2.38;;;9.20;81.70;;;;;;5049489;28;20421;-65
2022/11/23 07:42:15;;;;;;;4.70;2.20;;;9.20;82.00;;;;;;5043061;28;20422;-65
2022/11/23 07:44:42;;;;;;;6.17;3.00;;;9.20;81.20;;;;;;5043448;28;20441;-65
2022/11/23 07:47:09;;;;;;;4.23;2.00;;;9.30;81.20;;;;;;5059780;28;20416;-66
2022/11/23 07:49:35;;;;;;;7.80;2.97;;;9.20;81.50;;;;;;5055861;28;20453;-66
2022/11/23 07:52:02;;;;;;;4.93;2.50;;;9.20;82.30;;;;;;5057999;28;21114;-64
2022/11/23 07:54:30;;;;;;;5.15;2.60;;;9.20;81.90;;;;;;5050371;28;20441;-65
2022/11/23 07:56:57;;;;;;;6.45;2.08;;;9.20;81.70;;;;;;5050668;28;20429;-65
2022/11/23 07:59:24;;;;;;;5.00;2.00;;;9.20;82.30;;;;;;5054906;28;20433;-65
2022/11/23 08:01:51;;;;;;;4.90;2.00;;;9.20;83.30;;;;;;5051032;28;20421;-65
2022/11/23 08:04:17;;;;;;;4.97;2.20;;;9.10;84.20;;;;;;5046031;28;20954;-64
2022/11/23 08:06:44;;;;;;;5.63;2.30;;;9.10;85.30;;;;;;5046941;28;20438;-65
2022/11/23 08:09:11;;;;;;;7.07;2.20;;;9.00;86.00;;;;;;5048997;28;20421;-65
2022/11/23 08:11:39;;;;;;;5.30;2.45;;;9.20;86.30;;;;;;5048346;28;20443;-66
2022/11/23 08:14:05;;;;;;;6.90;2.35;;;9.30;85.40;;;;;;5053553;28;20478;-64
2022/11/23 08:16:32;;;;;;;6.00;2.40;;;9.40;85.10;;;;;;5055362;28;20421;-65
2022/11/23 08:18:59;;;;;;;6.57;2.20;;;9.50;84.20;;;;;;5034107;28;20949;-66
2022/11/23 08:21:25;;;;;;;5.75;2.38;;;9.70;83.00;;;;;;5041277;28;20442;-66
2022/11/23 08:23:52;;;;;;;5.07;2.10;;;9.80;82.50;;;;;;5039276;28;20785;-66
2022/11/23 08:26:19;;;;;;;8.75;2.65;;;9.90;81.80;;;;;;5052018;28;20430;-65
2022/11/23 08:28:47;;;;;;;5.13;2.40;;;10.00;81.40;;;;;;5049798;28;20460;-66
2022/11/23 08:31:14;;;;;;;7.38;2.70;;;10.20;81.30;;;;;;5042894;28;20417;-67
2022/11/23 08:33:41;;;;;;;5.60;2.50;;;10.30;79.20;;;;;;5041384;28;20916;-66
2022/11/23 08:36:09;;;;;;;5.38;2.60;;;10.30;79.20;;;;;;5056618;28;20428;-66
2022/11/23 08:38:36;;;;;;;6.00;2.90;;;10.30;78.80;;;;;;5057765;28;20451;-65
2022/11/23 08:41:04;;;;;;;5.90;2.50;;;10.30;78.80;;;;;;5054110;28;20432;-65
2022/11/23 08:43:31;;;;;;;4.95;2.40;;;10.40;78.80;;;;;;5041348;28;20469;-65
2022/11/23 08:46:02;;;;;;;7.32;3.15;;;10.50;79.00;;;;;;5050625;28;20429;-65
2022/11/23 08:48:29;;;;;;;5.45;2.50;;;10.60;78.30;;;;;;5055063;28;20436;-64
2022/11/23 08:50:58;;;;;;;4.97;2.25;;;10.80;77.50;;;;;;5048510;28;20783;-65
2022/11/23 08:53:25;;;;;;;8.20;2.85;;;10.90;77.20;;;;;;5055777;28;20415;-67
2022/11/23 08:55:52;;;;;;;6.85;2.85;;;11.10;75.20;;;;;;5048242;28;20429;-66
2022/11/23 08:58:19;;;;;;;6.57;2.40;;;11.10;75.30;;;;;;5065450;28;20415;-64
2022/11/23 09:00:45;;;;;;;6.18;2.67;;;11.20;74.60;;;;;;5030777;28;20430;-64
2022/11/23 09:03:14;;;;;;;7.57;2.28;;;11.20;74.60;;;;;;5045383;28;20427;-66
2022/11/23 09:05:40;;;;;;;7.03;2.30;;;11.30;73.80;;;;;;5051219;28;20426;-66
2022/11/23 09:08:07;;;;;;;7.97;2.55;;;11.30;73.70;;;;;;5046305;28;20454;-65
2022/11/23 09:10:34;;;;;;;5.47;2.20;;;11.30;72.80;;;;;;5049718;28;20962;-65
2022/11/23 09:13:02;;;;;;;4.45;2.10;;;11.40;73.20;;;;;;5041508;28;20429;-64
2022/11/23 09:15:28;;;;;;;6.85;2.58;;;11.50;71.80;;;;;;5040605;28;20482;-67
2022/11/23 09:17:56;;;;;;;6.80;2.30;;;11.40;71.40;;;;;;5042421;28;20445;-65
2022/11/23 09:20:24;;;;;;;8.00;2.53;;;11.10;72.30;;;;;;5058204;28;20420;-66
2022/11/23 09:22:52;;;;;;;6.28;2.50;;;10.90;73.20;;;;;;5039988;28;20422;-66
2022/11/23 09:25:19;;;;;;;7.43;2.80;;;10.80;73.80;;;;;;5047971;28;20429;-65
2022/11/23 09:27:46;;;;;;;6.22;2.40;;;10.60;74.20;;;;;;5033933;28;20437;-66
2022/11/23 09:30:13;;;;;;;6.53;3.00;;;10.50;73.10;;;;;;5039144;28;20431;-66
2022/11/23 09:32:40;;;;;;;6.47;2.90;;;10.50;72.10;;;;;;5037527;28;20438;-66
2022/11/23 09:35:08;;;;;;;5.55;2.25;;;10.40;72.80;;;;;;5051689;28;20436;-67
2022/11/23 09:37:36;;;;;;;5.63;2.15;;;10.30;71.60;;;;;;5033818;28;20424;-67
2022/11/23 09:40:03;;;;;;;4.65;2.40;;;10.30;71.30;;;;;;5035344;28;20443;-68
2022/11/23 09:42:51;;;;;;;6.72;2.30;;;10.20;70.70;;;;;;5038220;28;21087;-65
2022/11/23 09:45:26;;;;;;;4.90;2.05;;;10.10;70.60;;;;;;5051188;28;20403;-65
2022/11/23 09:48:17;;;;;;;5.90;2.00;;;10.10;71.60;;;;;;5028671;28;20433;-67
2022/11/23 09:50:47;;;;;;;6.90;2.70;;;10.10;71.30;;;;;;5038230;28;20444;-65
2022/11/23 09:53:19;;;;;;;6.37;2.97;;;10.10;71.30;;;;;;5035554;28;20930;-65
2022/11/23 09:55:48;;;;;;;5.68;2.00;;;10.20;70.90;;;;;;5032017;28;20425;-64
2022/11/23 09:58:17;;;;;;;5.57;2.03;;;10.30;70.10;;;;;;5035598;28;20470;-66
2022/11/23 10:00:47;;;;;;;6.10;2.00;;;10.20;68.50;;;;;;5038451;28;20468;-66
2022/11/23 10:03:15;;;;;;;6.07;2.40;;;10.20;69.60;;;;;;5035175;28;20419;-67
2022/11/23 10:05:47;;;;;;;4.70;1.80;;;10.10;70.30;;;;;;5038569;28;20437;-66
2022/11/23 10:08:26;;;;;;;5.80;2.10;;;10.10;70.40;;;;;;5029304;28;20506;-68
2022/11/23 10:11:00;;;;;;;5.07;2.17;;;10.10;70.30;;;;;;5034073;28;20441;-67
2022/11/23 10:13:34;;;;;;;4.93;2.20;;;10.10;70.70;;;;;;5041800;28;20420;-65
2022/11/23 10:16:15;;;;;;;7.53;2.88;;;10.10;71.30;;;;;;5034197;28;20434;-66
2022/11/23 10:18:50;;;;;;;6.67;2.20;;;10.20;72.00;;;;;;5030812;28;20426;-66
2022/11/23 10:21:28;;;;;;;5.32;2.10;;;10.30;71.50;;;;;;5044039;28;20418;-66
2022/11/23 10:24:05;;;;;;;6.50;2.58;;;10.30;70.20;;;;;;5043234;28;20528;-67
2022/11/23 10:26:34;;;;;;;4.60;2.20;;;10.30;70.30;;;;;;5039815;28;20501;-68
2022/11/23 10:29:11;;;;;;;5.25;1.88;;;10.20;69.70;;;;;;5032080;28;20429;-65
2022/11/23 10:31:38;;;;;;;5.87;2.43;;;10.10;69.80;;;;;;5036287;28;20544;-65
2022/11/23 10:34:11;;;;;;;4.57;1.70;;;10.20;70.20;;;;;;5050477;28;20417;-64
2022/11/23 10:36:39;;;;;;;4.90;2.15;;;10.20;69.10;;;;;;5050490;28;20421;-65
2022/11/23 10:39:18;;;;;;;4.70;1.60;;;10.20;69.40;;;;;;5040038;28;20436;-65
2022/11/23 10:41:45;;;;;;;4.97;1.65;;;10.30;69.00;;;;;;5038131;28;20953;-66
2022/11/23 10:44:28;;;;;;;6.45;2.30;;;10.40;68.30;;;;;;5030315;28;20415;-68
2022/11/23 10:46:55;;;;;;;6.03;1.80;;;10.40;68.30;;;;;;5030776;28;20421;-66
2022/11/23 10:49:25;;;;;;;5.30;1.60;;;10.40;68.40;;;;;;5040056;28;20417;-66
2022/11/23 10:51:54;;;;;;;4.55;2.25;;;10.50;68.40;;;;;;5045575;28;20427;-67
2022/11/23 10:54:26;;;;;;;5.00;1.90;;;10.70;68.60;;;;;;5029835;28;20437;-67
2022/11/23 10:56:54;;;;;;;4.15;1.73;;;10.90;67.50;;;;;;5044947;28;20438;-67
2022/11/23 10:59:42;;;;;;;4.38;1.90;;;11.30;65.20;;;;;;5041558;28;20415;-67
2022/11/23 11:02:16;;;;;;;5.97;1.95;;;11.60;64.60;;;;;;5042176;28;20437;-67
2022/11/23 11:04:43;;;;;;;3.57;1.47;;;11.70;64.00;;;;;;5046195;28;20433;-67
2022/11/23 11:07:19;;;;;;;4.82;1.58;;;11.80;62.50;;;;;;5042649;28;20432;-67
2022/11/23 11:09:54;;;;;;;6.07;2.40;;;11.80;62.80;;;;;;5046033;28;20433;-67
2022/11/23 11:12:21;;;;;;;6.00;1.80;;;11.90;63.00;;;;;;5047794;28;20436;-68
2022/11/23 11:15:03;;;;;;;4.75;1.75;;;12.00;62.80;;;;;;5048881;28;20417;-66
2022/11/23 11:17:32;;;;;;;4.53;1.70;;;11.80;63.10;;;;;;5039423;28;20483;-65
2022/11/23 11:20:00;;;;;;;3.13;2.00;;;11.70;63.40;;;;;;5038370;28;20427;-65
2022/11/23 11:22:33;;;;;;;3.92;1.60;;;11.50;64.50;;;;;;5038114;28;20442;-67
2022/11/23 11:25:02;;;;;;;4.25;1.70;;;11.50;63.80;;;;;;5040184;28;20439;-64
2022/11/23 11:27:31;;;;;;;5.10;1.83;;;11.50;64.50;;;;;;5040098;28;20413;-64
2022/11/23 11:30:05;;;;;;;5.53;1.90;;;11.50;63.90;;;;;;5039368;28;20422;-66
2022/11/23 11:32:40;;;;;;;3.35;1.70;;;11.60;63.90;;;;;;5046032;28;21109;-66
2022/11/23 11:35:13;;;;;;;5.85;2.30;;;11.50;63.20;;;;;;5041094;28;20448;-66
2022/11/23 11:37:44;;;;;;;4.80;2.00;;;11.30;63.80;;;;;;5038286;28;20430;-66
2022/11/23 11:40:18;;;;;;;5.10;1.60;;;11.10;64.20;;;;;;5044122;28;20435;-66
2022/11/23 11:42:50;;;;;;;5.55;1.88;;;11.00;65.70;;;;;;5042243;28;20437;-67
2022/11/23 11:45:23;;;;;;;5.75;2.28;;;10.90;66.40;;;;;;5035939;28;20417;-66
2022/11/23 11:47:56;;;;;;;5.32;2.20;;;10.80;67.00;;;;;;5043299;28;20418;-67
2022/11/23 11:50:25;;;;;;;6.90;2.50;;;10.80;67.30;;;;;;5042365;28;20921;-67
2022/11/23 11:52:58;;;;;;;6.43;2.20;;;10.70;67.80;;;;;;5028354;28;21072;-67
2022/11/23 11:55:31;;;;;;;4.85;1.90;;;10.60;68.20;;;;;;5042077;28;20433;-67
2022/11/23 11:58:04;;;;;;;4.47;2.00;;;10.70;68.20;;;;;;5048263;28;20409;-68
2022/11/23 12:00:36;;;;;;;5.55;2.50;;;10.70;68.50;;;;;;5030927;28;20422;-67
2022/11/23 12:03:10;;;;;;;3.72;1.95;;;10.80;68.20;;;;;;5034819;28;20923;-67
2022/11/23 12:05:42;;;;;;;4.25;1.80;;;10.80;68.70;;;;;;5043926;28;20764;-65
2022/11/23 12:08:13;;;;;;;6.38;2.20;;;10.80;68.90;;;;;;5047780;28;20421;-66
2022/11/23 12:10:48;;;;;;;4.90;2.10;;;10.80;68.80;;;;;;5040881;28;20421;-67
2022/11/23 12:13:17;;;;;;;5.60;2.30;;;10.80;69.00;;;;;;5028458;28;20419;-66
2022/11/23 12:15:46;;;;;;;4.40;1.90;;;10.80;69.20;;;;;;5028764;28;20427;-68
2022/11/23 12:18:55;;;;;;;4.50;1.60;;;10.80;68.50;;;;;;5041672;28;20422;-68
2022/11/23 12:21:58;;;;;;;4.13;1.50;;;11.10;66.30;;;;;;5011007;28;20793;-65
2022/11/23 12:24:37;;;;;;;2.67;1.48;;;11.40;65.80;;;;;;5033492;28;20433;-65
2022/11/23 12:27:18;;;;;;;4.40;1.50;;;12.20;62.90;;;;;;5036565;28;20437;-64
2022/11/23 12:29:58;;;;;;;3.45;1.70;;;12.20;61.00;;;;;;5041693;28;20423;-66
2022/11/23 12:32:34;;;;;;;3.60;1.50;;;11.80;61.50;;;;;;5027277;28;20421;-64
2022/11/23 12:35:21;;;;;;;4.18;1.48;;;11.50;62.50;;;;;;5036246;28;20442;-66
2022/11/23 12:37:58;;;;;;;3.40;1.40;;;11.20;63.40;;;;;;5045546;28;20419;-64
2022/11/23 12:40:45;;;;;;;3.10;1.45;;;11.00;64.60;;;;;;5042663;28;20520;-66
2022/11/23 12:43:21;;;;;;;4.43;1.60;;;10.90;64.90;;;;;;5039566;28;20421;-65
2022/11/23 12:46:07;;;;;;;3.00;1.20;;;10.80;65.30;;;;;;5034781;28;20415;-67
2022/11/23 12:48:48;;;;;;;5.70;1.90;;;10.70;65.70;;;;;;5037021;28;20788;-65
2022/11/23 12:51:28;;;;;;;4.97;1.60;;;10.70;66.00;;;;;;5032751;28;20457;-65
2022/11/23 12:54:09;;;;;;;4.13;1.50;;;10.70;65.80;;;;;;5047446;28;20417;-68
2022/11/23 12:57:00;;;;;;;3.47;1.70;;;10.80;66.10;;;;;;5038494;28;20447;-65
2022/11/23 12:59:43;;;;;;;6.15;1.60;;;10.90;66.50;;;;;;5027766;28;20497;-67
2022/11/23 13:02:22;;;;;;;5.60;1.77;;;11.20;66.40;;;;;;5037207;28;20929;-68
2022/11/23 13:05:15;;;;;;;4.90;1.58;;;11.80;64.00;;;;;;5043842;28;20425;-66